KGLD/GLD METAR and TAF weather

Enter ICAO airport designator
Station Type Date Time Source
KGLD METAR 2021/07/28 04:53 UTC NOAA

KGLD 280453Z AUTO 17007KT 10SM CLR 22/17 A3013 RMK AO2 SLP152 T02220167


Station Type Date Time Source
KGLD Decoded METAR 2021/07/28 04:53 UTC NOAA

GOODLAND RENNER FIELD, KS, United States (KGLD) 39-22N 101-42W 1114M
Jul 28, 2021 - 12:53 AM EDT / 2021.07.28 0453 UTC
Wind: from the S (170 degrees) at 8 MPH (7 KT):0
Visibility: 10 mile(s):0
Sky conditions: clear
Temperature: 72.0 F (22.2 C)
Dew Point: 62.1 F (16.7 C)
Relative Humidity: 71%
Pressure (altimeter): 30.13 in. Hg (1020 hPa)
ob: KGLD 280453Z AUTO 17007KT 10SM CLR 22/17 A3013 RMK AO2 SLP152 T02220167
cycle: 5

Station Type Date Time Source
KGLD TAF 2021/07/28 06:22 UTC NOAA

TAF KGLD 280520Z 2806/2906 17008KT P6SM SKC
FM281600 19014G23KT P6SM SKC
FM290200 17011KT P6SM SKC

Example: see airport list